Weather at Gdańsk Lech Wałęsa Airport

Public forecast

Using degrees Celsius for public forecast. Weather courtesy of forecast.io.

Current aviation weather report (METAR) for Gdańsk Lech Wałęsa Airport

Report is more than 6 hours old.

2022/11/14 15:30 (retrieved 2 years ago)

EPGD 141530Z 17009KT 150V210 9000 OVC007 06/05 Q1021

Aviation forecast (TAF) for Gdańsk Lech Wałęsa Airport

Forecast is more than 12 hours old.

2023/02/22 18:37 (retrieved 1 year ago)

TAF EPGD 221730Z 2218/2318 11008KT 9999 SCT020 BKN035 PROB40 2221/2303 4000 BR BECMG 2303/2306 17010KT BECMG 2316/2318 -RA BKN012 BKN020